Los Menucos, Argentina
Current Conditions -  °F | °C
As of 12:00 AM on Thursday 18 Dec 2014 (Local Time) from SAZN Reporting Station
Clear Clear  
Wind Chill: 61°   Ceiling: Unl
Heat Index: 61°   Visibility: 6mi
Dew Point: 50°   Wind: 0mph
Humidity: 68%   Direction: NA
Pressure: 29.91"   Gusts: NA
Location:  40.83°S, 68.13°W
Report Text: SAZN 180300Z 00000KT CAVOK 16/10 Q1013
Loading
Personal Weather Stations






























Interactive Weather Map New forecast layout! Learn more

10-Day Weather Forecast

Advertisements
Track Severe Weather on mobile